sensor_id;sensor_type;location;lat;lon;timestamp;P1;durP1;ratioP1;P2;durP2;ratioP2
45944;SDS011;31655;48.972;10.686;2023-12-20T00:00:38;8.98;;;6.25;;
45944;SDS011;31655;48.972;10.686;2023-12-20T00:03:03;10.13;;;5.90;;
45944;SDS011;31655;48.972;10.686;2023-12-20T00:05:30;7.40;;;5.47;;
45944;SDS011;31655;48.972;10.686;2023-12-20T00:07:58;9.27;;;6.45;;
45944;SDS011;31655;48.972;10.686;2023-12-20T00:10:24;13.27;;;6.20;;
45944;SDS011;31655;48.972;10.686;2023-12-20T00:12:49;10.10;;;5.55;;
45944;SDS011;31655;48.972;10.686;2023-12-20T00:15:15;9.30;;;5.35;;
45944;SDS011;31655;48.972;10.686;2023-12-20T00:17:40;10.43;;;6.30;;
45944;SDS011;31655;48.972;10.686;2023-12-20T00:20:06;9.05;;;5.93;;
45944;SDS011;31655;48.972;10.686;2023-12-20T00:22:32;9.52;;;5.85;;
45944;SDS011;31655;48.972;10.686;2023-12-20T00:24:57;10.45;;;6.82;;
45944;SDS011;31655;48.972;10.686;2023-12-20T00:27:23;9.73;;;6.38;;
45944;SDS011;31655;48.972;10.686;2023-12-20T00:29:48;10.65;;;5.85;;
45944;SDS011;31655;48.972;10.686;2023-12-20T00:32:15;12.63;;;6.95;;
45944;SDS011;31655;48.972;10.686;2023-12-20T00:34:43;10.70;;;6.88;;
45944;SDS011;31655;48.972;10.686;2023-12-20T00:37:09;11.38;;;6.63;;
45944;SDS011;31655;48.972;10.686;2023-12-20T00:39:35;11.50;;;6.93;;
45944;SDS011;31655;48.972;10.686;2023-12-20T00:42:00;9.80;;;7.00;;
45944;SDS011;31655;48.972;10.686;2023-12-20T00:44:26;9.80;;;5.97;;
45944;SDS011;31655;48.972;10.686;2023-12-20T00:46:51;12.50;;;7.22;;
45944;SDS011;31655;48.972;10.686;2023-12-20T00:49:17;8.70;;;5.97;;
45944;SDS011;31655;48.972;10.686;2023-12-20T00:51:42;11.25;;;6.75;;
45944;SDS011;31655;48.972;10.686;2023-12-20T00:54:08;13.77;;;8.80;;
45944;SDS011;31655;48.972;10.686;2023-12-20T00:56:34;14.60;;;7.25;;
45944;SDS011;31655;48.972;10.686;2023-12-20T00:59:00;14.13;;;7.65;;
45944;SDS011;31655;48.972;10.686;2023-12-20T01:01:25;12.63;;;7.53;;
45944;SDS011;31655;48.972;10.686;2023-12-20T01:03:51;10.80;;;7.22;;
45944;SDS011;31655;48.972;10.686;2023-12-20T01:06:17;9.32;;;6.30;;
45944;SDS011;31655;48.972;10.686;2023-12-20T01:08:43;11.70;;;7.07;;
45944;SDS011;31655;48.972;10.686;2023-12-20T01:11:11;12.10;;;6.97;;
45944;SDS011;31655;48.972;10.686;2023-12-20T01:13:37;10.45;;;7.95;;
45944;SDS011;31655;48.972;10.686;2023-12-20T01:16:03;12.20;;;7.57;;
45944;SDS011;31655;48.972;10.686;2023-12-20T01:18:29;11.75;;;7.18;;
45944;SDS011;31655;48.972;10.686;2023-12-20T01:20:54;15.43;;;9.48;;
45944;SDS011;31655;48.972;10.686;2023-12-20T01:23:20;11.88;;;8.63;;
45944;SDS011;31655;48.972;10.686;2023-12-20T01:25:46;14.88;;;8.65;;
45944;SDS011;31655;48.972;10.686;2023-12-20T01:28:11;11.98;;;8.23;;
45944;SDS011;31655;48.972;10.686;2023-12-20T01:30:37;15.93;;;8.57;;
45944;SDS011;31655;48.972;10.686;2023-12-20T01:33:03;16.10;;;8.68;;
45944;SDS011;31655;48.972;10.686;2023-12-20T01:35:29;17.02;;;9.88;;
45944;SDS011;31655;48.972;10.686;2023-12-20T01:37:54;12.80;;;8.73;;
45944;SDS011;31655;48.972;10.686;2023-12-20T01:40:22;13.55;;;8.98;;
45944;SDS011;31655;48.972;10.686;2023-12-20T01:42:57;15.32;;;9.40;;
45944;SDS011;31655;48.972;10.686;2023-12-20T01:45:26;14.35;;;10.07;;
45944;SDS011;31655;48.972;10.686;2023-12-20T01:47:52;16.65;;;9.65;;
45944;SDS011;31655;48.972;10.686;2023-12-20T01:50:19;14.38;;;9.32;;
45944;SDS011;31655;48.972;10.686;2023-12-20T01:52:45;14.43;;;9.25;;
45944;SDS011;31655;48.972;10.686;2023-12-20T01:55:11;14.85;;;8.95;;
45944;SDS011;31655;48.972;10.686;2023-12-20T01:57:40;14.82;;;9.20;;
45944;SDS011;31655;48.972;10.686;2023-12-20T02:00:06;12.98;;;8.30;;
45944;SDS011;31655;48.972;10.686;2023-12-20T02:02:34;10.20;;;7.30;;
45944;SDS011;31655;48.972;10.686;2023-12-20T02:05:01;13.85;;;6.07;;
45944;SDS011;31655;48.972;10.686;2023-12-20T02:07:28;11.38;;;7.40;;
45944;SDS011;31655;48.972;10.686;2023-12-20T02:09:55;9.73;;;6.32;;
45944;SDS011;31655;48.972;10.686;2023-12-20T02:12:21;10.02;;;5.28;;
45944;SDS011;31655;48.972;10.686;2023-12-20T02:14:47;8.43;;;5.13;;
45944;SDS011;31655;48.972;10.686;2023-12-20T02:17:13;6.75;;;4.35;;
45944;SDS011;31655;48.972;10.686;2023-12-20T02:19:39;7.93;;;4.40;;
45944;SDS011;31655;48.972;10.686;2023-12-20T02:22:08;8.60;;;4.65;;
45944;SDS011;31655;48.972;10.686;2023-12-20T02:24:34;5.45;;;4.05;;
45944;SDS011;31655;48.972;10.686;2023-12-20T02:27:00;5.88;;;3.83;;
45944;SDS011;31655;48.972;10.686;2023-12-20T02:29:25;5.55;;;4.32;;
45944;SDS011;31655;48.972;10.686;2023-12-20T02:31:52;6.47;;;4.15;;
45944;SDS011;31655;48.972;10.686;2023-12-20T02:34:17;5.00;;;4.15;;
45944;SDS011;31655;48.972;10.686;2023-12-20T02:36:43;5.65;;;4.00;;
45944;SDS011;31655;48.972;10.686;2023-12-20T02:39:09;4.93;;;3.17;;
45944;SDS011;31655;48.972;10.686;2023-12-20T02:41:34;4.95;;;3.00;;
45944;SDS011;31655;48.972;10.686;2023-12-20T02:44:01;5.97;;;3.58;;
45944;SDS011;31655;48.972;10.686;2023-12-20T02:46:26;6.82;;;3.13;;
45944;SDS011;31655;48.972;10.686;2023-12-20T02:48:52;3.60;;;2.90;;
45944;SDS011;31655;48.972;10.686;2023-12-20T02:51:18;4.03;;;2.63;;
45944;SDS011;31655;48.972;10.686;2023-12-20T02:53:44;4.05;;;2.92;;
45944;SDS011;31655;48.972;10.686;2023-12-20T02:56:10;4.47;;;2.58;;
45944;SDS011;31655;48.972;10.686;2023-12-20T02:58:36;2.53;;;2.25;;
45944;SDS011;31655;48.972;10.686;2023-12-20T03:01:01;3.97;;;2.10;;
45944;SDS011;31655;48.972;10.686;2023-12-20T03:03:27;2.85;;;2.22;;
45944;SDS011;31655;48.972;10.686;2023-12-20T03:05:52;3.53;;;1.95;;
45944;SDS011;31655;48.972;10.686;2023-12-20T03:08:18;5.22;;;2.38;;
45944;SDS011;31655;48.972;10.686;2023-12-20T03:10:43;2.35;;;1.45;;
45944;SDS011;31655;48.972;10.686;2023-12-20T03:13:09;1.98;;;1.48;;
45944;SDS011;31655;48.972;10.686;2023-12-20T03:15:35;2.35;;;1.70;;
45944;SDS011;31655;48.972;10.686;2023-12-20T03:18:01;1.73;;;1.52;;
45944;SDS011;31655;48.972;10.686;2023-12-20T03:20:26;1.98;;;1.35;;
45944;SDS011;31655;48.972;10.686;2023-12-20T03:22:52;1.85;;;1.67;;
45944;SDS011;31655;48.972;10.686;2023-12-20T03:25:17;3.85;;;1.67;;
45944;SDS011;31655;48.972;10.686;2023-12-20T03:27:43;4.32;;;1.73;;
45944;SDS011;31655;48.972;10.686;2023-12-20T03:30:08;2.83;;;1.70;;
45944;SDS011;31655;48.972;10.686;2023-12-20T03:32:34;2.15;;;1.63;;
45944;SDS011;31655;48.972;10.686;2023-12-20T03:35:00;2.00;;;1.50;;
45944;SDS011;31655;48.972;10.686;2023-12-20T03:37:25;3.20;;;1.90;;
45944;SDS011;31655;48.972;10.686;2023-12-20T03:39:51;2.22;;;1.70;;
45944;SDS011;31655;48.972;10.686;2023-12-20T03:42:16;2.78;;;2.08;;
45944;SDS011;31655;48.972;10.686;2023-12-20T03:44:42;3.10;;;2.10;;
45944;SDS011;31655;48.972;10.686;2023-12-20T03:47:08;3.63;;;1.85;;
45944;SDS011;31655;48.972;10.686;2023-12-20T03:49:33;2.20;;;1.60;;
45944;SDS011;31655;48.972;10.686;2023-12-20T03:51:59;3.55;;;1.92;;
45944;SDS011;31655;48.972;10.686;2023-12-20T03:54:24;3.30;;;1.95;;
45944;SDS011;31655;48.972;10.686;2023-12-20T03:56:50;2.75;;;1.92;;
45944;SDS011;31655;48.972;10.686;2023-12-20T03:59:17;3.15;;;1.90;;
45944;SDS011;31655;48.972;10.686;2023-12-20T04:01:43;2.75;;;2.35;;
45944;SDS011;31655;48.972;10.686;2023-12-20T04:04:10;3.20;;;1.67;;
45944;SDS011;31655;48.972;10.686;2023-12-20T04:06:35;2.50;;;1.85;;
45944;SDS011;31655;48.972;10.686;2023-12-20T04:09:01;2.10;;;1.67;;
45944;SDS011;31655;48.972;10.686;2023-12-20T04:11:27;3.10;;;2.00;;
45944;SDS011;31655;48.972;10.686;2023-12-20T04:13:52;2.72;;;1.85;;
45944;SDS011;31655;48.972;10.686;2023-12-20T04:16:18;1.50;;;1.20;;
45944;SDS011;31655;48.972;10.686;2023-12-20T04:18:43;2.35;;;1.52;;
45944;SDS011;31655;48.972;10.686;2023-12-20T04:21:09;2.30;;;1.65;;
45944;SDS011;31655;48.972;10.686;2023-12-20T04:23:35;3.58;;;1.40;;
45944;SDS011;31655;48.972;10.686;2023-12-20T04:26:00;2.58;;;2.25;;
45944;SDS011;31655;48.972;10.686;2023-12-20T04:28:26;2.05;;;1.63;;
45944;SDS011;31655;48.972;10.686;2023-12-20T04:30:51;1.92;;;1.70;;
45944;SDS011;31655;48.972;10.686;2023-12-20T04:33:17;2.40;;;1.40;;
45944;SDS011;31655;48.972;10.686;2023-12-20T04:35:43;1.48;;;1.27;;
45944;SDS011;31655;48.972;10.686;2023-12-20T04:38:10;1.52;;;1.20;;
45944;SDS011;31655;48.972;10.686;2023-12-20T04:40:36;1.33;;;1.23;;
45944;SDS011;31655;48.972;10.686;2023-12-20T04:43:02;1.65;;;1.33;;
45944;SDS011;31655;48.972;10.686;2023-12-20T04:45:28;1.52;;;1.42;;
45944;SDS011;31655;48.972;10.686;2023-12-20T04:47:53;1.77;;;1.33;;
45944;SDS011;31655;48.972;10.686;2023-12-20T04:50:20;2.47;;;1.70;;
45944;SDS011;31655;48.972;10.686;2023-12-20T04:52:46;1.52;;;1.30;;
45944;SDS011;31655;48.972;10.686;2023-12-20T04:55:12;1.70;;;1.40;;
45944;SDS011;31655;48.972;10.686;2023-12-20T04:57:37;1.50;;;1.38;;
45944;SDS011;31655;48.972;10.686;2023-12-20T05:00:03;1.30;;;0.80;;
45944;SDS011;31655;48.972;10.686;2023-12-20T05:02:29;1.88;;;1.00;;
45944;SDS011;31655;48.972;10.686;2023-12-20T05:04:56;1.15;;;0.82;;
45944;SDS011;31655;48.972;10.686;2023-12-20T05:07:22;2.95;;;1.10;;
45944;SDS011;31655;48.972;10.686;2023-12-20T05:09:47;1.35;;;1.02;;
45944;SDS011;31655;48.972;10.686;2023-12-20T05:12:13;1.30;;;0.80;;
45944;SDS011;31655;48.972;10.686;2023-12-20T05:14:39;1.00;;;0.80;;
45944;SDS011;31655;48.972;10.686;2023-12-20T05:17:04;0.70;;;0.70;;
45944;SDS011;31655;48.972;10.686;2023-12-20T05:19:30;1.75;;;0.70;;
45944;SDS011;31655;48.972;10.686;2023-12-20T05:21:56;0.80;;;0.80;;
45944;SDS011;31655;48.972;10.686;2023-12-20T05:24:21;1.15;;;0.75;;
45944;SDS011;31655;48.972;10.686;2023-12-20T05:26:47;1.35;;;0.88;;
45944;SDS011;31655;48.972;10.686;2023-12-20T05:29:12;0.85;;;0.63;;
45944;SDS011;31655;48.972;10.686;2023-12-20T05:31:38;0.73;;;0.73;;
45944;SDS011;31655;48.972;10.686;2023-12-20T05:34:03;1.00;;;0.85;;
45944;SDS011;31655;48.972;10.686;2023-12-20T05:36:29;1.50;;;0.77;;
45944;SDS011;31655;48.972;10.686;2023-12-20T05:38:54;0.68;;;0.68;;
45944;SDS011;31655;48.972;10.686;2023-12-20T05:41:20;1.20;;;0.90;;
45944;SDS011;31655;48.972;10.686;2023-12-20T05:43:46;0.93;;;0.93;;
45944;SDS011;31655;48.972;10.686;2023-12-20T05:46:12;2.08;;;1.23;;
45944;SDS011;31655;48.972;10.686;2023-12-20T05:48:37;0.93;;;0.85;;
45944;SDS011;31655;48.972;10.686;2023-12-20T05:51:03;0.80;;;0.80;;
45944;SDS011;31655;48.972;10.686;2023-12-20T05:53:29;1.38;;;0.90;;
45944;SDS011;31655;48.972;10.686;2023-12-20T05:55:54;1.00;;;0.68;;
45944;SDS011;31655;48.972;10.686;2023-12-20T05:58:20;1.27;;;0.65;;
45944;SDS011;31655;48.972;10.686;2023-12-20T06:00:45;1.20;;;0.93;;
45944;SDS011;31655;48.972;10.686;2023-12-20T06:03:11;0.85;;;0.85;;
45944;SDS011;31655;48.972;10.686;2023-12-20T06:05:36;1.17;;;1.05;;
45944;SDS011;31655;48.972;10.686;2023-12-20T06:08:02;1.60;;;1.30;;
45944;SDS011;31655;48.972;10.686;2023-12-20T06:10:28;1.15;;;1.00;;
45944;SDS011;31655;48.972;10.686;2023-12-20T06:12:54;1.65;;;1.02;;
45944;SDS011;31655;48.972;10.686;2023-12-20T06:15:21;2.17;;;1.30;;
45944;SDS011;31655;48.972;10.686;2023-12-20T06:17:46;1.80;;;1.33;;
45944;SDS011;31655;48.972;10.686;2023-12-20T06:20:12;1.70;;;1.20;;
45944;SDS011;31655;48.972;10.686;2023-12-20T06:22:38;1.40;;;1.20;;
45944;SDS011;31655;48.972;10.686;2023-12-20T06:25:04;1.15;;;1.02;;
45944;SDS011;31655;48.972;10.686;2023-12-20T06:27:30;1.55;;;1.25;;
45944;SDS011;31655;48.972;10.686;2023-12-20T06:29:57;1.90;;;1.50;;
45944;SDS011;31655;48.972;10.686;2023-12-20T06:32:24;1.90;;;1.75;;
45944;SDS011;31655;48.972;10.686;2023-12-20T06:34:49;1.58;;;1.40;;
45944;SDS011;31655;48.972;10.686;2023-12-20T06:37:15;1.83;;;1.52;;
45944;SDS011;31655;48.972;10.686;2023-12-20T06:39:41;2.25;;;1.60;;
45944;SDS011;31655;48.972;10.686;2023-12-20T06:42:06;1.45;;;1.35;;
45944;SDS011;31655;48.972;10.686;2023-12-20T06:44:32;2.00;;;1.60;;
45944;SDS011;31655;48.972;10.686;2023-12-20T06:46:58;1.92;;;1.77;;
45944;SDS011;31655;48.972;10.686;2023-12-20T06:49:23;1.75;;;1.63;;
45944;SDS011;31655;48.972;10.686;2023-12-20T06:51:49;1.63;;;1.52;;
45944;SDS011;31655;48.972;10.686;2023-12-20T06:54:14;2.22;;;1.50;;
45944;SDS011;31655;48.972;10.686;2023-12-20T06:56:40;1.85;;;1.58;;
45944;SDS011;31655;48.972;10.686;2023-12-20T06:59:07;1.55;;;1.45;;
45944;SDS011;31655;48.972;10.686;2023-12-20T07:01:33;1.88;;;1.77;;
45944;SDS011;31655;48.972;10.686;2023-12-20T07:03:58;2.08;;;1.85;;
45944;SDS011;31655;48.972;10.686;2023-12-20T07:06:24;2.30;;;2.10;;
45944;SDS011;31655;48.972;10.686;2023-12-20T07:08:50;2.83;;;2.50;;
45944;SDS011;31655;48.972;10.686;2023-12-20T07:11:17;2.50;;;2.30;;
45944;SDS011;31655;48.972;10.686;2023-12-20T07:13:43;2.58;;;2.38;;
45944;SDS011;31655;48.972;10.686;2023-12-20T07:16:08;2.90;;;2.55;;
45944;SDS011;31655;48.972;10.686;2023-12-20T07:18:34;2.78;;;2.35;;
45944;SDS011;31655;48.972;10.686;2023-12-20T07:20:59;2.92;;;2.58;;
45944;SDS011;31655;48.972;10.686;2023-12-20T07:23:25;4.03;;;3.17;;
45944;SDS011;31655;48.972;10.686;2023-12-20T07:25:51;4.00;;;3.28;;
45944;SDS011;31655;48.972;10.686;2023-12-20T07:28:17;3.60;;;3.30;;
45944;SDS011;31655;48.972;10.686;2023-12-20T07:30:45;4.63;;;3.40;;
45944;SDS011;31655;48.972;10.686;2023-12-20T07:33:14;4.28;;;3.30;;
45944;SDS011;31655;48.972;10.686;2023-12-20T07:35:39;4.63;;;3.28;;
45944;SDS011;31655;48.972;10.686;2023-12-20T07:38:05;4.72;;;3.25;;
45944;SDS011;31655;48.972;10.686;2023-12-20T07:40:31;4.35;;;3.30;;
45944;SDS011;31655;48.972;10.686;2023-12-20T07:42:57;6.85;;;3.60;;
45944;SDS011;31655;48.972;10.686;2023-12-20T07:45:23;4.25;;;3.22;;
45944;SDS011;31655;48.972;10.686;2023-12-20T07:47:48;10.85;;;3.53;;
45944;SDS011;31655;48.972;10.686;2023-12-20T07:50:15;5.93;;;3.90;;
45944;SDS011;31655;48.972;10.686;2023-12-20T07:52:40;4.80;;;3.72;;
45944;SDS011;31655;48.972;10.686;2023-12-20T07:55:06;4.45;;;3.53;;
45944;SDS011;31655;48.972;10.686;2023-12-20T07:57:32;5.00;;;3.95;;
45944;SDS011;31655;48.972;10.686;2023-12-20T07:59:58;6.32;;;4.30;;
45944;SDS011;31655;48.972;10.686;2023-12-20T08:02:23;5.57;;;4.20;;
45944;SDS011;31655;48.972;10.686;2023-12-20T08:04:49;5.88;;;4.47;;
45944;SDS011;31655;48.972;10.686;2023-12-20T08:07:14;5.45;;;4.18;;
45944;SDS011;31655;48.972;10.686;2023-12-20T08:09:40;5.28;;;4.22;;
45944;SDS011;31655;48.972;10.686;2023-12-20T08:12:05;5.15;;;3.92;;
45944;SDS011;31655;48.972;10.686;2023-12-20T08:14:31;5.63;;;4.43;;
45944;SDS011;31655;48.972;10.686;2023-12-20T08:16:57;6.70;;;4.53;;
45944;SDS011;31655;48.972;10.686;2023-12-20T08:19:22;5.95;;;4.70;;
45944;SDS011;31655;48.972;10.686;2023-12-20T08:21:48;7.30;;;4.60;;
45944;SDS011;31655;48.972;10.686;2023-12-20T08:24:14;6.00;;;4.43;;
45944;SDS011;31655;48.972;10.686;2023-12-20T08:26:39;6.13;;;4.60;;
45944;SDS011;31655;48.972;10.686;2023-12-20T08:29:06;8.98;;;5.32;;
45944;SDS011;31655;48.972;10.686;2023-12-20T08:31:31;5.82;;;4.53;;
45944;SDS011;31655;48.972;10.686;2023-12-20T08:33:57;7.53;;;5.00;;
45944;SDS011;31655;48.972;10.686;2023-12-20T08:36:23;6.68;;;4.68;;
45944;SDS011;31655;48.972;10.686;2023-12-20T08:38:48;5.40;;;4.60;;
45944;SDS011;31655;48.972;10.686;2023-12-20T08:41:15;6.57;;;5.43;;
45944;SDS011;31655;48.972;10.686;2023-12-20T08:43:42;6.93;;;5.60;;
45944;SDS011;31655;48.972;10.686;2023-12-20T08:46:07;5.38;;;3.85;;
45944;SDS011;31655;48.972;10.686;2023-12-20T08:48:34;5.40;;;3.90;;
45944;SDS011;31655;48.972;10.686;2023-12-20T08:51:00;4.15;;;3.75;;
45944;SDS011;31655;48.972;10.686;2023-12-20T08:53:26;4.13;;;3.72;;
45944;SDS011;31655;48.972;10.686;2023-12-20T08:55:51;4.43;;;3.55;;
45944;SDS011;31655;48.972;10.686;2023-12-20T08:58:17;3.85;;;3.22;;
45944;SDS011;31655;48.972;10.686;2023-12-20T09:00:43;3.58;;;2.88;;
45944;SDS011;31655;48.972;10.686;2023-12-20T09:03:11;3.67;;;3.00;;
45944;SDS011;31655;48.972;10.686;2023-12-20T09:05:37;3.95;;;2.72;;
45944;SDS011;31655;48.972;10.686;2023-12-20T09:08:02;4.25;;;3.30;;
45944;SDS011;31655;48.972;10.686;2023-12-20T09:10:28;4.20;;;2.97;;
45944;SDS011;31655;48.972;10.686;2023-12-20T09:12:54;4.28;;;3.25;;
45944;SDS011;31655;48.972;10.686;2023-12-20T09:15:23;5.07;;;3.72;;
45944;SDS011;31655;48.972;10.686;2023-12-20T09:17:50;3.78;;;2.88;;
45944;SDS011;31655;48.972;10.686;2023-12-20T09:20:15;3.00;;;2.70;;
45944;SDS011;31655;48.972;10.686;2023-12-20T09:22:41;4.30;;;3.05;;
45944;SDS011;31655;48.972;10.686;2023-12-20T09:25:07;2.75;;;2.30;;
45944;SDS011;31655;48.972;10.686;2023-12-20T09:27:34;3.47;;;2.60;;
45944;SDS011;31655;48.972;10.686;2023-12-20T09:29:59;3.33;;;2.42;;
45944;SDS011;31655;48.972;10.686;2023-12-20T09:32:25;3.42;;;2.97;;
45944;SDS011;31655;48.972;10.686;2023-12-20T09:34:50;4.65;;;2.80;;
45944;SDS011;31655;48.972;10.686;2023-12-20T09:37:16;3.90;;;3.05;;
45944;SDS011;31655;48.972;10.686;2023-12-20T09:39:42;5.72;;;3.33;;
45944;SDS011;31655;48.972;10.686;2023-12-20T09:42:07;3.97;;;3.17;;
45944;SDS011;31655;48.972;10.686;2023-12-20T09:44:35;3.67;;;2.53;;
45944;SDS011;31655;48.972;10.686;2023-12-20T09:47:04;6.28;;;2.85;;
45944;SDS011;31655;48.972;10.686;2023-12-20T09:49:30;3.50;;;2.22;;
45944;SDS011;31655;48.972;10.686;2023-12-20T09:51:58;2.80;;;2.47;;
45944;SDS011;31655;48.972;10.686;2023-12-20T09:54:25;5.88;;;2.35;;
45944;SDS011;31655;48.972;10.686;2023-12-20T09:56:53;4.63;;;2.30;;
45944;SDS011;31655;48.972;10.686;2023-12-20T09:59:18;2.75;;;1.92;;
45944;SDS011;31655;48.972;10.686;2023-12-20T10:01:44;3.05;;;1.90;;
45944;SDS011;31655;48.972;10.686;2023-12-20T10:04:10;2.28;;;2.05;;
45944;SDS011;31655;48.972;10.686;2023-12-20T10:06:41;5.63;;;2.17;;
45944;SDS011;31655;48.972;10.686;2023-12-20T10:09:08;3.28;;;2.08;;
45944;SDS011;31655;48.972;10.686;2023-12-20T10:11:37;3.97;;;2.00;;
45944;SDS011;31655;48.972;10.686;2023-12-20T10:14:03;3.33;;;2.05;;
45944;SDS011;31655;48.972;10.686;2023-12-20T10:16:29;3.97;;;2.70;;
45944;SDS011;31655;48.972;10.686;2023-12-20T10:18:56;3.78;;;2.25;;
45944;SDS011;31655;48.972;10.686;2023-12-20T10:21:22;4.82;;;1.80;;
45944;SDS011;31655;48.972;10.686;2023-12-20T10:23:49;4.72;;;1.85;;
45944;SDS011;31655;48.972;10.686;2023-12-20T10:26:24;3.60;;;1.83;;
45944;SDS011;31655;48.972;10.686;2023-12-20T10:28:55;2.40;;;1.63;;
45944;SDS011;31655;48.972;10.686;2023-12-20T10:33:57;12.10;;;2.20;;
45944;SDS011;31655;48.972;10.686;2023-12-20T10:36:29;3.17;;;2.00;;
45944;SDS011;31655;48.972;10.686;2023-12-20T10:38:56;2.65;;;1.92;;
45944;SDS011;31655;48.972;10.686;2023-12-20T10:41:25;4.07;;;1.83;;
45944;SDS011;31655;48.972;10.686;2023-12-20T10:43:58;1.95;;;1.60;;
45944;SDS011;31655;48.972;10.686;2023-12-20T10:46:29;4.57;;;2.10;;
45944;SDS011;31655;48.972;10.686;2023-12-20T10:48:57;3.22;;;2.28;;
45944;SDS011;31655;48.972;10.686;2023-12-20T10:51:23;2.75;;;2.00;;
45944;SDS011;31655;48.972;10.686;2023-12-20T10:53:52;2.53;;;1.83;;
45944;SDS011;31655;48.972;10.686;2023-12-20T10:56:18;2.10;;;1.75;;
45944;SDS011;31655;48.972;10.686;2023-12-20T10:58:45;3.75;;;1.50;;
45944;SDS011;31655;48.972;10.686;2023-12-20T11:01:12;3.92;;;1.60;;
45944;SDS011;31655;48.972;10.686;2023-12-20T11:03:41;1.88;;;1.75;;
45944;SDS011;31655;48.972;10.686;2023-12-20T11:09:24;2.70;;;1.67;;
45944;SDS011;31655;48.972;10.686;2023-12-20T11:14:34;8.75;;;2.95;;
45944;SDS011;31655;48.972;10.686;2023-12-20T11:17:09;4.05;;;2.00;;
45944;SDS011;31655;48.972;10.686;2023-12-20T11:22:17;3.50;;;1.80;;
45944;SDS011;31655;48.972;10.686;2023-12-20T11:24:44;2.47;;;1.50;;
45944;SDS011;31655;48.972;10.686;2023-12-20T11:27:12;2.03;;;1.60;;
45944;SDS011;31655;48.972;10.686;2023-12-20T11:29:38;2.63;;;1.70;;
45944;SDS011;31655;48.972;10.686;2023-12-20T11:37:36;7.38;;;2.00;;
45944;SDS011;31655;48.972;10.686;2023-12-20T11:42:33;5.85;;;1.90;;
45944;SDS011;31655;48.972;10.686;2023-12-20T11:45:04;7.53;;;1.83;;
45944;SDS011;31655;48.972;10.686;2023-12-20T11:47:30;4.60;;;2.00;;
45944;SDS011;31655;48.972;10.686;2023-12-20T11:49:56;3.95;;;1.70;;
45944;SDS011;31655;48.972;10.686;2023-12-20T11:52:22;3.90;;;1.30;;
45944;SDS011;31655;48.972;10.686;2023-12-20T11:54:47;4.80;;;2.22;;
45944;SDS011;31655;48.972;10.686;2023-12-20T11:57:13;3.28;;;1.75;;
45944;SDS011;31655;48.972;10.686;2023-12-20T11:59:39;12.80;;;2.08;;
45944;SDS011;31655;48.972;10.686;2023-12-20T12:02:05;3.58;;;1.65;;
45944;SDS011;31655;48.972;10.686;2023-12-20T12:04:30;2.58;;;1.58;;
45944;SDS011;31655;48.972;10.686;2023-12-20T12:06:56;4.80;;;2.15;;
45944;SDS011;31655;48.972;10.686;2023-12-20T12:09:22;9.85;;;2.25;;
45944;SDS011;31655;48.972;10.686;2023-12-20T12:11:47;4.28;;;1.70;;
45944;SDS011;31655;48.972;10.686;2023-12-20T12:14:13;5.90;;;1.67;;
45944;SDS011;31655;48.972;10.686;2023-12-20T12:16:39;6.88;;;1.73;;
45944;SDS011;31655;48.972;10.686;2023-12-20T12:19:06;3.20;;;1.77;;
45944;SDS011;31655;48.972;10.686;2023-12-20T12:21:31;4.55;;;2.15;;
45944;SDS011;31655;48.972;10.686;2023-12-20T12:24:07;6.50;;;2.00;;
45944;SDS011;31655;48.972;10.686;2023-12-20T12:26:37;5.45;;;2.50;;
45944;SDS011;31655;48.972;10.686;2023-12-20T12:29:03;5.72;;;2.55;;
45944;SDS011;31655;48.972;10.686;2023-12-20T12:31:28;5.45;;;1.98;;
45944;SDS011;31655;48.972;10.686;2023-12-20T12:33:55;9.13;;;2.47;;
45944;SDS011;31655;48.972;10.686;2023-12-20T12:36:21;10.30;;;2.38;;
45944;SDS011;31655;48.972;10.686;2023-12-20T12:38:47;3.80;;;1.60;;
45944;SDS011;31655;48.972;10.686;2023-12-20T12:41:13;4.10;;;2.00;;
45944;SDS011;31655;48.972;10.686;2023-12-20T12:43:40;5.78;;;2.25;;
45944;SDS011;31655;48.972;10.686;2023-12-20T12:46:05;4.35;;;2.00;;
45944;SDS011;31655;48.972;10.686;2023-12-20T12:48:31;7.13;;;2.40;;
45944;SDS011;31655;48.972;10.686;2023-12-20T12:50:57;3.88;;;1.70;;
45944;SDS011;31655;48.972;10.686;2023-12-20T12:53:24;7.90;;;2.33;;
45944;SDS011;31655;48.972;10.686;2023-12-20T12:55:51;3.90;;;2.17;;
45944;SDS011;31655;48.972;10.686;2023-12-20T12:58:18;8.95;;;2.58;;
45944;SDS011;31655;48.972;10.686;2023-12-20T13:00:43;7.85;;;1.95;;
45944;SDS011;31655;48.972;10.686;2023-12-20T13:03:09;10.55;;;4.07;;
45944;SDS011;31655;48.972;10.686;2023-12-20T13:05:34;9.48;;;2.63;;
45944;SDS011;31655;48.972;10.686;2023-12-20T13:08:00;10.45;;;2.30;;
45944;SDS011;31655;48.972;10.686;2023-12-20T13:10:26;6.32;;;2.10;;
45944;SDS011;31655;48.972;10.686;2023-12-20T13:12:52;8.43;;;2.33;;
45944;SDS011;31655;48.972;10.686;2023-12-20T13:15:17;10.38;;;2.80;;
45944;SDS011;31655;48.972;10.686;2023-12-20T13:17:43;3.60;;;2.05;;
45944;SDS011;31655;48.972;10.686;2023-12-20T13:20:11;8.57;;;1.95;;
45944;SDS011;31655;48.972;10.686;2023-12-20T13:22:36;7.00;;;2.10;;
45944;SDS011;31655;48.972;10.686;2023-12-20T13:25:02;14.23;;;3.17;;
45944;SDS011;31655;48.972;10.686;2023-12-20T13:27:28;7.97;;;2.50;;
45944;SDS011;31655;48.972;10.686;2023-12-20T13:29:53;6.70;;;2.35;;
45944;SDS011;31655;48.972;10.686;2023-12-20T13:32:19;3.65;;;2.10;;
45944;SDS011;31655;48.972;10.686;2023-12-20T13:34:45;10.40;;;2.10;;
45944;SDS011;31655;48.972;10.686;2023-12-20T13:37:10;6.82;;;2.15;;
45944;SDS011;31655;48.972;10.686;2023-12-20T13:39:36;11.52;;;2.38;;
45944;SDS011;31655;48.972;10.686;2023-12-20T13:42:02;6.90;;;2.47;;
45944;SDS011;31655;48.972;10.686;2023-12-20T13:44:27;6.40;;;2.20;;
45944;SDS011;31655;48.972;10.686;2023-12-20T13:46:53;6.47;;;1.95;;
45944;SDS011;31655;48.972;10.686;2023-12-20T13:49:21;3.72;;;1.70;;
45944;SDS011;31655;48.972;10.686;2023-12-20T13:51:50;5.10;;;1.83;;
45944;SDS011;31655;48.972;10.686;2023-12-20T13:54:16;6.43;;;2.00;;
45944;SDS011;31655;48.972;10.686;2023-12-20T13:56:45;9.75;;;2.33;;
45944;SDS011;31655;48.972;10.686;2023-12-20T13:59:10;8.05;;;2.13;;
45944;SDS011;31655;48.972;10.686;2023-12-20T14:01:37;9.60;;;2.63;;
45944;SDS011;31655;48.972;10.686;2023-12-20T14:04:04;5.05;;;2.22;;
45944;SDS011;31655;48.972;10.686;2023-12-20T14:06:30;7.53;;;2.25;;
45944;SDS011;31655;48.972;10.686;2023-12-20T14:08:55;4.85;;;1.92;;
45944;SDS011;31655;48.972;10.686;2023-12-20T14:11:21;5.70;;;2.90;;
45944;SDS011;31655;48.972;10.686;2023-12-20T14:13:47;4.28;;;2.28;;
45944;SDS011;31655;48.972;10.686;2023-12-20T14:16:12;3.08;;;2.03;;
45944;SDS011;31655;48.972;10.686;2023-12-20T14:18:39;5.88;;;2.67;;
45944;SDS011;31655;48.972;10.686;2023-12-20T14:21:05;5.18;;;2.10;;
45944;SDS011;31655;48.972;10.686;2023-12-20T14:23:31;7.55;;;2.35;;
45944;SDS011;31655;48.972;10.686;2023-12-20T14:25:58;10.68;;;3.33;;
45944;SDS011;31655;48.972;10.686;2023-12-20T14:28:24;11.57;;;2.65;;
45944;SDS011;31655;48.972;10.686;2023-12-20T14:30:51;5.13;;;2.78;;
45944;SDS011;31655;48.972;10.686;2023-12-20T14:33:17;8.55;;;3.38;;
45944;SDS011;31655;48.972;10.686;2023-12-20T14:35:44;9.18;;;3.05;;
45944;SDS011;31655;48.972;10.686;2023-12-20T14:38:10;5.47;;;3.20;;
45944;SDS011;31655;48.972;10.686;2023-12-20T14:40:37;9.90;;;2.80;;
45944;SDS011;31655;48.972;10.686;2023-12-20T14:43:05;8.85;;;2.67;;
45944;SDS011;31655;48.972;10.686;2023-12-20T14:45:31;4.68;;;2.10;;